San Lucas, CA (93954)

1:29 AM PDT on September 20, 2014 (GMT -0700)
Paso Robles Municipal | Change Station
CLOSE
Current Station
Airport
Location: Paso Robles,
Elevation: 837 ft
Nearby Weather Stations

Elev 837 ft 35.67 °N, 120.63 °W | Updated 36 minutes ago

Partly Cloudy
Partly Cloudy
63 °F
Feels Like 63 °F
N
4
Wind Variable Wind from SSW

Today
High -- | Low -- °F
--% Chance of Precip.
Yesterday
High -- | Low -- °F
Precip. -- in
6:50 AM 7:03 PM
Waning Crescent, 13% visible
Pressure 29.88 in
Visibility 10.0 miles
Clouds Clear
Dew Point 55 °F
Humidity 75%
Rainfall 0.00 in
Snow Depth Not available.
UV 0 out of 12
Pollen 5.90 out of 12
Air Quality Not available.
Flu Activity Not available.
METAR KPRB 200753Z AUTO 21003KT 10SM CLR 17/13 A2990 RMK AO2 SLP119 T01720128 403170172 TSNO $

More Conditions Fewer Conditions

Pressure 29.88 in
Visibility 10.0 miles
Clouds Clear
Dew Point 55 °F
Humidity 75%
Rainfall 0.00 in
Snow Depth Not available.
UV 0 out of 12
Pollen 5.90 out of 12
Air Quality Not available.
Flu Activity Not available.
METAR KPRB 200753Z AUTO 21003KT 10SM CLR 17/13 A2990 RMK AO2 SLP119 T01720128 403170172 TSNO $

More Conditions Fewer Conditions

10-Day Weather Forecast

Almanac

Astronomy

Sep. 20, 2014 Rise Set
Actual Time 6:50 AM PDT 7:03 PM PDT
Civil Twilight 6:24 AM PDT 7:29 PM PDT
Nautical Twilight 5:54 AM PDT 7:59 PM PDT
Astronomical Twilight 5:24 AM PDT 8:29 PM PDT
Moon 3:39 AM PDT 5:06 PM PDT
Length of Visible Light 13h 04m
Length of Day
12h 13m
Tomorrow will be 2m 16s shorter.
Waning Crescent, 13% of the Moon is Illuminated
Today
Waning Crescent
Sep 24
New
Oct 1
First Quarter
Oct 8
Full
Oct 15
Last Quarter

Today's Extremes

State Highs State Lows

Community

WunderPhotos

Upload Photos

1,754,793 photos uploaded!

WunderBlogs® & News

Nearby

Snow Depth

Station Depth Elevation
Spratt Creek 1 in 6200 ft
Summit Meadow 1 in 9122 ft
Echo Peak 0 in 7800 ft
Leavitt Meadows 1 in 7200 ft
Sonora Pass 0 in 8800 ft

Earthquake Activity

City Distance Mag. Time & Date
Livermore, California 114 miles 2.6 3:37 AM PDT
2014-09-19
Corcoran, California 76 miles 2.9 3:59 PM PDT
2014-09-18
Minimum magnitude displayed is 2.5.

Coastal Water Temperatures

Place Temperature
Monterey, CA 63.0 °F
Port San Luis, CA 60.1 °F

Nearby Weather Stations